sensor_id;sensor_type;location;lat;lon;timestamp;pressure;altitude;pressure_sealevel;temperature;humidity
35716;BME280;21840;44.920;8.616;2023-02-28T00:00:47;100930.19;;;10.09;45.56
35716;BME280;21840;44.920;8.616;2023-02-28T00:03:13;100921.66;;;9.83;46.09
35716;BME280;21840;44.920;8.616;2023-02-28T00:05:38;100920.09;;;9.69;46.49
35716;BME280;21840;44.920;8.616;2023-02-28T00:08:04;100919.84;;;9.72;46.15
35716;BME280;21840;44.920;8.616;2023-02-28T00:10:30;100916.78;;;9.79;46.31
35716;BME280;21840;44.920;8.616;2023-02-28T00:13:03;100909.25;;;9.74;46.17
35716;BME280;21840;44.920;8.616;2023-02-28T00:15:30;100906.25;;;9.67;46.36
35716;BME280;21840;44.920;8.616;2023-02-28T00:17:55;100906.09;;;9.58;46.41
35716;BME280;21840;44.920;8.616;2023-02-28T00:20:21;100903.63;;;9.56;46.49
35716;BME280;21840;44.920;8.616;2023-02-28T00:22:48;100895.97;;;9.53;46.56
35716;BME280;21840;44.920;8.616;2023-02-28T00:25:18;100903.81;;;9.53;46.49
35716;BME280;21840;44.920;8.616;2023-02-28T00:27:44;100900.28;;;9.54;46.26
35716;BME280;21840;44.920;8.616;2023-02-28T00:30:12;100907.94;;;9.68;46.13
35716;BME280;21840;44.920;8.616;2023-02-28T00:32:38;100919.56;;;9.53;46.26
35716;BME280;21840;44.920;8.616;2023-02-28T00:35:04;100909.84;;;9.66;45.99
35716;BME280;21840;44.920;8.616;2023-02-28T00:37:31;100912.88;;;9.49;45.64
35716;BME280;21840;44.920;8.616;2023-02-28T00:39:56;100902.66;;;9.57;45.24
35716;BME280;21840;44.920;8.616;2023-02-28T00:42:22;100896.94;;;9.52;45.36
35716;BME280;21840;44.920;8.616;2023-02-28T00:44:47;100906.59;;;9.27;45.69
35716;BME280;21840;44.920;8.616;2023-02-28T00:47:13;100906.44;;;9.42;45.81
35716;BME280;21840;44.920;8.616;2023-02-28T00:49:39;100906.53;;;9.40;45.37
35716;BME280;21840;44.920;8.616;2023-02-28T00:52:05;100901.81;;;9.21;45.08
35716;BME280;21840;44.920;8.616;2023-02-28T00:54:31;100914.47;;;9.27;45.14
35716;BME280;21840;44.920;8.616;2023-02-28T00:56:56;100920.50;;;9.17;44.95
35716;BME280;21840;44.920;8.616;2023-02-28T00:59:21;100919.19;;;9.11;45.12
35716;BME280;21840;44.920;8.616;2023-02-28T01:01:47;100910.59;;;9.09;44.74
35716;BME280;21840;44.920;8.616;2023-02-28T01:04:13;100917.88;;;9.17;44.40
35716;BME280;21840;44.920;8.616;2023-02-28T01:06:39;100911.19;;;9.13;44.57
35716;BME280;21840;44.920;8.616;2023-02-28T01:09:06;100918.38;;;8.98;44.53
35716;BME280;21840;44.920;8.616;2023-02-28T01:11:32;100917.47;;;9.10;43.92
35716;BME280;21840;44.920;8.616;2023-02-28T01:13:58;100917.94;;;9.04;43.57
35716;BME280;21840;44.920;8.616;2023-02-28T01:16:24;100925.50;;;9.20;43.10
35716;BME280;21840;44.920;8.616;2023-02-28T01:18:50;100927.06;;;9.22;42.88
35716;BME280;21840;44.920;8.616;2023-02-28T01:21:18;100928.41;;;9.28;42.85
35716;BME280;21840;44.920;8.616;2023-02-28T01:23:44;100929.53;;;9.37;42.89
35716;BME280;21840;44.920;8.616;2023-02-28T01:26:19;100928.38;;;9.17;42.96
35716;BME280;21840;44.920;8.616;2023-02-28T01:28:45;100938.78;;;9.29;42.59
35716;BME280;21840;44.920;8.616;2023-02-28T01:31:11;100938.47;;;9.45;42.33
35716;BME280;21840;44.920;8.616;2023-02-28T01:33:38;100927.06;;;9.22;42.58
35716;BME280;21840;44.920;8.616;2023-02-28T01:36:11;100932.78;;;9.16;42.66
35716;BME280;21840;44.920;8.616;2023-02-28T01:38:37;100930.84;;;9.18;42.92
35716;BME280;21840;44.920;8.616;2023-02-28T01:41:02;100928.47;;;9.15;42.56
35716;BME280;21840;44.920;8.616;2023-02-28T01:46:14;100936.44;;;9.14;42.41
35716;BME280;21840;44.920;8.616;2023-02-28T01:48:44;100934.31;;;8.95;42.62
35716;BME280;21840;44.920;8.616;2023-02-28T01:51:16;100927.91;;;8.99;42.40
35716;BME280;21840;44.920;8.616;2023-02-28T01:53:50;100934.53;;;8.92;41.91
35716;BME280;21840;44.920;8.616;2023-02-28T01:56:21;100927.00;;;8.87;42.05
35716;BME280;21840;44.920;8.616;2023-02-28T01:58:53;100929.63;;;8.87;42.05
35716;BME280;21840;44.920;8.616;2023-02-28T02:01:20;100914.31;;;8.94;42.04
35716;BME280;21840;44.920;8.616;2023-02-28T02:03:55;100918.19;;;8.88;42.10
35716;BME280;21840;44.920;8.616;2023-02-28T02:06:44;100913.25;;;8.96;42.21
35716;BME280;21840;44.920;8.616;2023-02-28T02:09:11;100919.66;;;8.92;42.10
35716;BME280;21840;44.920;8.616;2023-02-28T02:11:39;100925.13;;;9.13;41.77
35716;BME280;21840;44.920;8.616;2023-02-28T02:14:22;100923.94;;;9.17;41.64
35716;BME280;21840;44.920;8.616;2023-02-28T02:25:39;100917.44;;;8.99;42.30
35716;BME280;21840;44.920;8.616;2023-02-28T02:34:20;100905.66;;;8.80;42.46
35716;BME280;21840;44.920;8.616;2023-02-28T02:39:52;100910.50;;;8.74;42.47
35716;BME280;21840;44.920;8.616;2023-02-28T02:42:29;100905.28;;;8.61;42.67
35716;BME280;21840;44.920;8.616;2023-02-28T02:45:01;100909.81;;;8.46;43.13
35716;BME280;21840;44.920;8.616;2023-02-28T02:47:31;100901.50;;;8.65;42.55
35716;BME280;21840;44.920;8.616;2023-02-28T02:50:01;100909.47;;;8.63;42.31
35716;BME280;21840;44.920;8.616;2023-02-28T02:52:36;100905.72;;;8.55;42.20
35716;BME280;21840;44.920;8.616;2023-02-28T02:55:06;100911.16;;;8.64;42.54
35716;BME280;21840;44.920;8.616;2023-02-28T02:57:37;100909.28;;;8.28;42.90
35716;BME280;21840;44.920;8.616;2023-02-28T03:00:05;100899.34;;;8.33;43.00
35716;BME280;21840;44.920;8.616;2023-02-28T03:02:35;100904.69;;;8.32;43.74
35716;BME280;21840;44.920;8.616;2023-02-28T03:05:12;100915.91;;;8.34;43.58
35716;BME280;21840;44.920;8.616;2023-02-28T03:07:39;100901.34;;;8.30;43.78
35716;BME280;21840;44.920;8.616;2023-02-28T03:13:03;100905.94;;;8.39;43.26
35716;BME280;21840;44.920;8.616;2023-02-28T03:16:07;100911.50;;;8.34;43.25
35716;BME280;21840;44.920;8.616;2023-02-28T03:21:34;100906.59;;;8.30;43.20
35716;BME280;21840;44.920;8.616;2023-02-28T03:24:18;100905.31;;;8.35;43.19
35716;BME280;21840;44.920;8.616;2023-02-28T03:26:50;100903.88;;;8.31;43.22
35716;BME280;21840;44.920;8.616;2023-02-28T03:29:25;100917.06;;;8.42;42.96
35716;BME280;21840;44.920;8.616;2023-02-28T03:31:59;100919.16;;;8.25;43.22
35716;BME280;21840;44.920;8.616;2023-02-28T03:34:33;100916.63;;;8.23;43.43
35716;BME280;21840;44.920;8.616;2023-02-28T03:37:04;100910.47;;;8.24;43.01
35716;BME280;21840;44.920;8.616;2023-02-28T03:39:43;100920.81;;;8.00;43.58
35716;BME280;21840;44.920;8.616;2023-02-28T03:42:30;100915.56;;;8.26;43.26
35716;BME280;21840;44.920;8.616;2023-02-28T03:44:59;100917.47;;;8.11;43.35
35716;BME280;21840;44.920;8.616;2023-02-28T03:50:21;100927.22;;;8.21;43.68
35716;BME280;21840;44.920;8.616;2023-02-28T03:53:25;100930.03;;;8.18;43.66
35716;BME280;21840;44.920;8.616;2023-02-28T03:56:03;100930.66;;;7.96;43.80
35716;BME280;21840;44.920;8.616;2023-02-28T03:58:44;100925.97;;;8.02;43.85
35716;BME280;21840;44.920;8.616;2023-02-28T04:01:21;100937.47;;;7.99;43.71
35716;BME280;21840;44.920;8.616;2023-02-28T04:03:47;100930.25;;;8.03;43.75
35716;BME280;21840;44.920;8.616;2023-02-28T04:06:16;100942.78;;;8.23;43.62
35716;BME280;21840;44.920;8.616;2023-02-28T04:08:43;100931.72;;;8.07;43.49
35716;BME280;21840;44.920;8.616;2023-02-28T04:13:57;100940.09;;;8.12;43.90
35716;BME280;21840;44.920;8.616;2023-02-28T04:16:22;100936.09;;;8.06;43.55
35716;BME280;21840;44.920;8.616;2023-02-28T04:18:48;100933.38;;;8.08;43.64
35716;BME280;21840;44.920;8.616;2023-02-28T04:21:13;100933.69;;;8.16;43.48
35716;BME280;21840;44.920;8.616;2023-02-28T04:23:39;100941.31;;;8.06;43.56
35716;BME280;21840;44.920;8.616;2023-02-28T04:26:05;100939.94;;;8.26;43.57
35716;BME280;21840;44.920;8.616;2023-02-28T04:28:31;100956.41;;;8.15;43.32
35716;BME280;21840;44.920;8.616;2023-02-28T04:31:03;100938.31;;;7.99;44.01
35716;BME280;21840;44.920;8.616;2023-02-28T04:33:31;100943.84;;;8.08;43.95
35716;BME280;21840;44.920;8.616;2023-02-28T04:36:06;100942.69;;;8.12;43.78
35716;BME280;21840;44.920;8.616;2023-02-28T04:38:33;100943.75;;;8.09;43.92
35716;BME280;21840;44.920;8.616;2023-02-28T04:41:00;100941.97;;;8.23;43.73
35716;BME280;21840;44.920;8.616;2023-02-28T04:43:27;100941.66;;;8.02;43.78
35716;BME280;21840;44.920;8.616;2023-02-28T04:45:54;100945.31;;;7.99;43.80
35716;BME280;21840;44.920;8.616;2023-02-28T04:48:26;100947.94;;;7.86;44.03
35716;BME280;21840;44.920;8.616;2023-02-28T04:50:52;100953.47;;;8.07;43.87
35716;BME280;21840;44.920;8.616;2023-02-28T04:53:18;100954.72;;;8.27;43.56
35716;BME280;21840;44.920;8.616;2023-02-28T04:55:44;100966.03;;;8.28;43.42
35716;BME280;21840;44.920;8.616;2023-02-28T04:58:10;100960.38;;;8.21;43.66
35716;BME280;21840;44.920;8.616;2023-02-28T05:00:35;100959.75;;;8.05;43.56
35716;BME280;21840;44.920;8.616;2023-02-28T05:03:01;100960.06;;;8.13;43.66
35716;BME280;21840;44.920;8.616;2023-02-28T05:05:26;100964.75;;;8.20;43.72
35716;BME280;21840;44.920;8.616;2023-02-28T05:07:52;100963.72;;;7.97;43.59
35716;BME280;21840;44.920;8.616;2023-02-28T05:10:19;100963.72;;;8.10;43.72
35716;BME280;21840;44.920;8.616;2023-02-28T05:12:44;100967.28;;;7.96;43.98
35716;BME280;21840;44.920;8.616;2023-02-28T05:15:14;100969.06;;;8.21;43.45
35716;BME280;21840;44.920;8.616;2023-02-28T05:17:40;100978.16;;;8.16;43.79
35716;BME280;21840;44.920;8.616;2023-02-28T05:20:06;100970.00;;;8.20;43.39
35716;BME280;21840;44.920;8.616;2023-02-28T05:22:32;100964.75;;;8.20;43.61
35716;BME280;21840;44.920;8.616;2023-02-28T05:24:57;100970.94;;;8.07;43.83
35716;BME280;21840;44.920;8.616;2023-02-28T05:27:23;100965.28;;;8.13;43.89
35716;BME280;21840;44.920;8.616;2023-02-28T05:29:48;100971.16;;;8.29;43.36
35716;BME280;21840;44.920;8.616;2023-02-28T05:32:14;100973.13;;;8.26;43.14
35716;BME280;21840;44.920;8.616;2023-02-28T05:34:41;100973.66;;;8.31;43.22
35716;BME280;21840;44.920;8.616;2023-02-28T05:37:11;100974.81;;;8.27;43.21
35716;BME280;21840;44.920;8.616;2023-02-28T05:39:37;100978.28;;;8.27;43.24
35716;BME280;21840;44.920;8.616;2023-02-28T05:42:04;100983.28;;;8.30;42.94
35716;BME280;21840;44.920;8.616;2023-02-28T05:44:29;100991.66;;;8.10;43.21
35716;BME280;21840;44.920;8.616;2023-02-28T05:46:55;100996.47;;;8.16;43.05
35716;BME280;21840;44.920;8.616;2023-02-28T05:49:21;100998.03;;;8.18;43.15
35716;BME280;21840;44.920;8.616;2023-02-28T05:51:46;100990.63;;;8.12;42.80
35716;BME280;21840;44.920;8.616;2023-02-28T05:54:12;100999.31;;;8.26;42.71
35716;BME280;21840;44.920;8.616;2023-02-28T05:56:37;100992.41;;;8.12;42.91
35716;BME280;21840;44.920;8.616;2023-02-28T05:59:05;100998.91;;;8.19;42.98
35716;BME280;21840;44.920;8.616;2023-02-28T06:01:32;101000.34;;;8.23;43.22
35716;BME280;21840;44.920;8.616;2023-02-28T06:03:59;100994.59;;;8.18;43.40
35716;BME280;21840;44.920;8.616;2023-02-28T06:06:25;101000.56;;;8.20;43.22
35716;BME280;21840;44.920;8.616;2023-02-28T06:08:51;100994.19;;;8.11;43.05
35716;BME280;21840;44.920;8.616;2023-02-28T06:11:16;101002.44;;;8.05;43.05
35716;BME280;21840;44.920;8.616;2023-02-28T06:13:42;100996.16;;;8.08;43.27
35716;BME280;21840;44.920;8.616;2023-02-28T06:16:10;101001.91;;;8.26;43.03
35716;BME280;21840;44.920;8.616;2023-02-28T06:18:36;101004.13;;;8.19;43.13
35716;BME280;21840;44.920;8.616;2023-02-28T06:21:01;101001.81;;;8.14;43.11
35716;BME280;21840;44.920;8.616;2023-02-28T06:23:27;101010.59;;;8.13;43.25
35716;BME280;21840;44.920;8.616;2023-02-28T06:25:53;101008.31;;;8.09;43.64
35716;BME280;21840;44.920;8.616;2023-02-28T06:28:18;101013.84;;;8.17;43.17
35716;BME280;21840;44.920;8.616;2023-02-28T06:30:44;101017.63;;;8.38;43.00
35716;BME280;21840;44.920;8.616;2023-02-28T06:33:09;101026.22;;;8.28;42.91
35716;BME280;21840;44.920;8.616;2023-02-28T06:35:35;101025.47;;;8.38;42.56
35716;BME280;21840;44.920;8.616;2023-02-28T06:38:00;101028.94;;;8.39;42.21
35716;BME280;21840;44.920;8.616;2023-02-28T06:40:26;101022.78;;;8.40;41.93
35716;BME280;21840;44.920;8.616;2023-02-28T06:42:52;101032.00;;;8.46;41.43
35716;BME280;21840;44.920;8.616;2023-02-28T06:45:17;101024.16;;;8.46;41.15
35716;BME280;21840;44.920;8.616;2023-02-28T06:47:43;101019.66;;;8.48;40.56
35716;BME280;21840;44.920;8.616;2023-02-28T06:50:12;101022.84;;;8.26;41.10
35716;BME280;21840;44.920;8.616;2023-02-28T06:52:38;101027.38;;;8.36;40.59
35716;BME280;21840;44.920;8.616;2023-02-28T06:55:05;101027.41;;;8.49;40.29
35716;BME280;21840;44.920;8.616;2023-02-28T06:57:32;101024.47;;;8.54;40.40
35716;BME280;21840;44.920;8.616;2023-02-28T06:59:59;101033.44;;;8.37;40.10
35716;BME280;21840;44.920;8.616;2023-02-28T07:02:25;101028.22;;;8.37;40.20
35716;BME280;21840;44.920;8.616;2023-02-28T07:04:51;101037.22;;;8.46;39.93
35716;BME280;21840;44.920;8.616;2023-02-28T07:07:16;101039.53;;;8.50;39.97
35716;BME280;21840;44.920;8.616;2023-02-28T07:09:42;101053.28;;;8.54;39.88
35716;BME280;21840;44.920;8.616;2023-02-28T07:12:07;101049.56;;;8.43;39.79
35716;BME280;21840;44.920;8.616;2023-02-28T07:14:32;101045.09;;;8.46;39.85
35716;BME280;21840;44.920;8.616;2023-02-28T07:16:58;101053.78;;;8.59;39.36
35716;BME280;21840;44.920;8.616;2023-02-28T07:19:23;101056.19;;;8.62;39.51
35716;BME280;21840;44.920;8.616;2023-02-28T07:21:49;101051.28;;;8.57;39.13
35716;BME280;21840;44.920;8.616;2023-02-28T07:24:14;101063.81;;;8.78;39.08
35716;BME280;21840;44.920;8.616;2023-02-28T07:26:41;101066.34;;;8.79;38.86
35716;BME280;21840;44.920;8.616;2023-02-28T07:29:06;101063.41;;;8.97;38.59
35716;BME280;21840;44.920;8.616;2023-02-28T07:31:32;101064.84;;;9.01;38.78
35716;BME280;21840;44.920;8.616;2023-02-28T07:33:57;101064.44;;;9.07;38.85
35716;BME280;21840;44.920;8.616;2023-02-28T07:36:23;101068.16;;;9.28;38.42
35716;BME280;21840;44.920;8.616;2023-02-28T07:38:49;101071.94;;;9.24;38.56
35716;BME280;21840;44.920;8.616;2023-02-28T07:41:20;101078.44;;;9.19;38.34
35716;BME280;21840;44.920;8.616;2023-02-28T07:43:46;101079.88;;;9.60;38.06
35716;BME280;21840;44.920;8.616;2023-02-28T07:46:13;101078.00;;;9.62;37.87
35716;BME280;21840;44.920;8.616;2023-02-28T07:48:42;101075.78;;;9.68;37.63
35716;BME280;21840;44.920;8.616;2023-02-28T07:51:08;101074.53;;;9.85;37.37
35716;BME280;21840;44.920;8.616;2023-02-28T07:53:34;101077.25;;;10.08;37.21
35716;BME280;21840;44.920;8.616;2023-02-28T07:56:01;101079.22;;;9.93;37.24
35716;BME280;21840;44.920;8.616;2023-02-28T07:58:27;101085.66;;;9.89;36.60
35716;BME280;21840;44.920;8.616;2023-02-28T08:00:53;101079.78;;;9.85;36.53
35716;BME280;21840;44.920;8.616;2023-02-28T08:03:20;101078.78;;;9.75;36.60
35716;BME280;21840;44.920;8.616;2023-02-28T08:05:46;101090.22;;;9.74;36.70
35716;BME280;21840;44.920;8.616;2023-02-28T08:08:11;101080.97;;;9.81;36.52
35716;BME280;21840;44.920;8.616;2023-02-28T08:10:37;101085.75;;;9.87;36.30
35716;BME280;21840;44.920;8.616;2023-02-28T08:13:03;101084.19;;;9.85;36.41
35716;BME280;21840;44.920;8.616;2023-02-28T08:15:28;101085.19;;;9.95;36.36
35716;BME280;21840;44.920;8.616;2023-02-28T08:17:54;101086.66;;;9.99;36.31
35716;BME280;21840;44.920;8.616;2023-02-28T08:20:22;101093.69;;;9.99;36.39
35716;BME280;21840;44.920;8.616;2023-02-28T08:22:47;101087.06;;;10.17;36.06
35716;BME280;21840;44.920;8.616;2023-02-28T08:25:13;101099.69;;;10.36;35.89
35716;BME280;21840;44.920;8.616;2023-02-28T08:27:38;101099.31;;;10.41;36.31
35716;BME280;21840;44.920;8.616;2023-02-28T08:30:04;101096.25;;;10.58;35.89
35716;BME280;21840;44.920;8.616;2023-02-28T08:32:30;101093.28;;;10.63;35.86
35716;BME280;21840;44.920;8.616;2023-02-28T08:34:57;101094.25;;;10.73;35.79
35716;BME280;21840;44.920;8.616;2023-02-28T08:37:22;101099.38;;;10.86;35.66
35716;BME280;21840;44.920;8.616;2023-02-28T08:39:47;101095.22;;;10.94;34.97
35716;BME280;21840;44.920;8.616;2023-02-28T08:42:13;101098.69;;;10.95;35.38
35716;BME280;21840;44.920;8.616;2023-02-28T08:44:39;101102.13;;;11.18;35.30
35716;BME280;21840;44.920;8.616;2023-02-28T08:47:05;101102.88;;;10.97;35.49
35716;BME280;21840;44.920;8.616;2023-02-28T08:49:31;101100.00;;;10.89;35.52
35716;BME280;21840;44.920;8.616;2023-02-28T08:51:56;101099.88;;;10.79;35.59
35716;BME280;21840;44.920;8.616;2023-02-28T08:54:23;101102.41;;;10.81;35.28
35716;BME280;21840;44.920;8.616;2023-02-28T08:56:48;101092.34;;;10.75;35.39
35716;BME280;21840;44.920;8.616;2023-02-28T08:59:14;101097.75;;;10.96;35.43
35716;BME280;21840;44.920;8.616;2023-02-28T09:01:40;101100.94;;;10.77;35.82
35716;BME280;21840;44.920;8.616;2023-02-28T09:04:06;101101.88;;;10.65;35.49
35716;BME280;21840;44.920;8.616;2023-02-28T09:06:34;101104.75;;;10.73;35.47
35716;BME280;21840;44.920;8.616;2023-02-28T09:09:00;101119.53;;;10.51;35.25
35716;BME280;21840;44.920;8.616;2023-02-28T09:11:27;101103.28;;;10.46;35.50
35716;BME280;21840;44.920;8.616;2023-02-28T09:13:53;101117.41;;;10.68;35.67
35716;BME280;21840;44.920;8.616;2023-02-28T09:16:20;101119.41;;;10.53;35.45
35716;BME280;21840;44.920;8.616;2023-02-28T09:18:46;101111.91;;;10.60;35.29
35716;BME280;21840;44.920;8.616;2023-02-28T09:21:14;101121.38;;;10.85;34.94
35716;BME280;21840;44.920;8.616;2023-02-28T09:23:41;101112.06;;;10.92;34.73
35716;BME280;21840;44.920;8.616;2023-02-28T09:26:07;101117.78;;;11.08;34.67
35716;BME280;21840;44.920;8.616;2023-02-28T09:28:33;101111.13;;;11.04;34.30
35716;BME280;21840;44.920;8.616;2023-02-28T09:30:58;101113.03;;;11.25;34.12
35716;BME280;21840;44.920;8.616;2023-02-28T09:33:24;101117.06;;;11.40;34.11
35716;BME280;21840;44.920;8.616;2023-02-28T09:35:56;101116.13;;;11.41;34.28
35716;BME280;21840;44.920;8.616;2023-02-28T09:38:22;101110.09;;;11.50;34.21
35716;BME280;21840;44.920;8.616;2023-02-28T09:40:53;101116.88;;;11.86;33.64
35716;BME280;21840;44.920;8.616;2023-02-28T09:43:22;101117.09;;;11.83;33.53
35716;BME280;21840;44.920;8.616;2023-02-28T09:46:00;101120.69;;;11.94;33.63
35716;BME280;21840;44.920;8.616;2023-02-28T09:48:34;101107.84;;;11.57;33.74
35716;BME280;21840;44.920;8.616;2023-02-28T09:53:48;101118.63;;;11.97;33.40
35716;BME280;21840;44.920;8.616;2023-02-28T09:56:25;101107.19;;;11.87;33.68
35716;BME280;21840;44.920;8.616;2023-02-28T09:59:02;101110.94;;;12.05;34.04
35716;BME280;21840;44.920;8.616;2023-02-28T10:01:43;101117.59;;;12.21;34.09
35716;BME280;21840;44.920;8.616;2023-02-28T10:06:55;101122.06;;;12.09;34.80
35716;BME280;21840;44.920;8.616;2023-02-28T10:09:30;101109.38;;;12.56;34.29
35716;BME280;21840;44.920;8.616;2023-02-28T10:12:02;101125.44;;;12.53;34.25
35716;BME280;21840;44.920;8.616;2023-02-28T10:14:32;101127.72;;;12.67;34.28
35716;BME280;21840;44.920;8.616;2023-02-28T10:17:05;101127.50;;;12.28;34.22
35716;BME280;21840;44.920;8.616;2023-02-28T10:22:34;101140.66;;;12.28;33.48
35716;BME280;21840;44.920;8.616;2023-02-28T10:25:15;101133.59;;;12.50;32.88
35716;BME280;21840;44.920;8.616;2023-02-28T10:27:41;101144.13;;;12.29;33.24
35716;BME280;21840;44.920;8.616;2023-02-28T10:30:09;101139.94;;;12.26;32.95
35716;BME280;21840;44.920;8.616;2023-02-28T10:32:37;101139.75;;;12.60;33.14
35716;BME280;21840;44.920;8.616;2023-02-28T10:35:32;101146.81;;;12.60;32.20
35716;BME280;21840;44.920;8.616;2023-02-28T10:38:00;101146.25;;;12.56;32.16
35716;BME280;21840;44.920;8.616;2023-02-28T10:40:35;101141.41;;;12.82;31.13
35716;BME280;21840;44.920;8.616;2023-02-28T10:43:27;101128.38;;;12.81;31.21
35716;BME280;21840;44.920;8.616;2023-02-28T10:45:53;101117.56;;;13.14;31.05
35716;BME280;21840;44.920;8.616;2023-02-28T10:58:42;101117.78;;;13.32;31.23
35716;BME280;21840;44.920;8.616;2023-02-28T11:03:56;101121.66;;;12.98;29.97
35716;BME280;21840;44.920;8.616;2023-02-28T11:06:29;101124.88;;;12.80;29.70
35716;BME280;21840;44.920;8.616;2023-02-28T11:08:56;101122.06;;;12.93;30.25
35716;BME280;21840;44.920;8.616;2023-02-28T11:11:25;101118.47;;;12.94;30.35
35716;BME280;21840;44.920;8.616;2023-02-28T11:13:54;101124.38;;;12.86;30.46
35716;BME280;21840;44.920;8.616;2023-02-28T11:16:22;101119.72;;;13.00;30.47
35716;BME280;21840;44.920;8.616;2023-02-28T11:18:57;101114.41;;;13.21;30.64
35716;BME280;21840;44.920;8.616;2023-02-28T11:21:36;101114.75;;;13.37;30.63
35716;BME280;21840;44.920;8.616;2023-02-28T11:26:43;101102.53;;;13.36;30.98
35716;BME280;21840;44.920;8.616;2023-02-28T11:29:18;101102.47;;;13.67;31.06
35716;BME280;21840;44.920;8.616;2023-02-28T11:32:04;101107.34;;;13.81;30.98
35716;BME280;21840;44.920;8.616;2023-02-28T11:34:31;101097.31;;;13.65;30.95
35716;BME280;21840;44.920;8.616;2023-02-28T11:36:59;101092.56;;;13.49;31.10
35716;BME280;21840;44.920;8.616;2023-02-28T11:39:25;101098.41;;;13.43;31.41
35716;BME280;21840;44.920;8.616;2023-02-28T11:47:38;101085.41;;;13.80;30.81
35716;BME280;21840;44.920;8.616;2023-02-28T11:53:05;101077.75;;;14.16;30.86
35716;BME280;21840;44.920;8.616;2023-02-28T11:55:39;101074.16;;;13.88;30.64
35716;BME280;21840;44.920;8.616;2023-02-28T12:09:13;101066.53;;;14.71;30.31
35716;BME280;21840;44.920;8.616;2023-02-28T12:11:54;101067.69;;;14.39;30.42
35716;BME280;21840;44.920;8.616;2023-02-28T12:17:12;101063.41;;;14.38;30.28
35716;BME280;21840;44.920;8.616;2023-02-28T12:22:49;101057.19;;;14.77;30.35
35716;BME280;21840;44.920;8.616;2023-02-28T12:28:24;101047.34;;;14.97;30.05
35716;BME280;21840;44.920;8.616;2023-02-28T12:31:22;101051.38;;;15.01;29.90
35716;BME280;21840;44.920;8.616;2023-02-28T12:33:57;101048.31;;;15.05;29.93
35716;BME280;21840;44.920;8.616;2023-02-28T12:36:24;101048.38;;;15.14;29.77
35716;BME280;21840;44.920;8.616;2023-02-28T12:39:23;101045.00;;;14.94;29.94
35716;BME280;21840;44.920;8.616;2023-02-28T12:44:23;101034.03;;;15.16;29.88
35716;BME280;21840;44.920;8.616;2023-02-28T12:46:58;101035.75;;;15.35;29.83
35716;BME280;21840;44.920;8.616;2023-02-28T12:49:28;101032.41;;;15.33;29.78
35716;BME280;21840;44.920;8.616;2023-02-28T12:51:57;101027.25;;;15.31;29.67
35716;BME280;21840;44.920;8.616;2023-02-28T12:59:41;101022.06;;;15.12;29.53
35716;BME280;21840;44.920;8.616;2023-02-28T13:10:05;101011.88;;;15.17;29.96
35716;BME280;21840;44.920;8.616;2023-02-28T13:12:33;101000.94;;;15.66;29.60
35716;BME280;21840;44.920;8.616;2023-02-28T13:15:08;100993.28;;;15.99;29.19
35716;BME280;21840;44.920;8.616;2023-02-28T13:17:41;100994.09;;;15.55;29.23
35716;BME280;21840;44.920;8.616;2023-02-28T13:20:23;100978.34;;;15.53;29.46
35716;BME280;21840;44.920;8.616;2023-02-28T13:22:52;100979.06;;;15.10;30.10
35716;BME280;21840;44.920;8.616;2023-02-28T13:27:46;100974.13;;;14.97;30.70
35716;BME280;21840;44.920;8.616;2023-02-28T13:33:29;100972.47;;;14.96;30.69
35716;BME280;21840;44.920;8.616;2023-02-28T13:38:43;100959.91;;;14.80;30.38
35716;BME280;21840;44.920;8.616;2023-02-28T13:46:33;100972.81;;;13.99;31.54
35716;BME280;21840;44.920;8.616;2023-02-28T13:51:49;100951.38;;;14.21;31.47
35716;BME280;21840;44.920;8.616;2023-02-28T14:03:18;100954.66;;;14.33;31.58
35716;BME280;21840;44.920;8.616;2023-02-28T14:11:39;100956.97;;;14.56;31.07
35716;BME280;21840;44.920;8.616;2023-02-28T14:14:06;100938.31;;;14.57;31.24
35716;BME280;21840;44.920;8.616;2023-02-28T14:16:38;100941.94;;;14.84;30.93
35716;BME280;21840;44.920;8.616;2023-02-28T14:19:13;100934.50;;;14.70;31.48
35716;BME280;21840;44.920;8.616;2023-02-28T14:21:49;100954.03;;;14.59;31.76
35716;BME280;21840;44.920;8.616;2023-02-28T14:27:26;100953.53;;;13.79;33.76
35716;BME280;21840;44.920;8.616;2023-02-28T14:38:18;100930.50;;;13.13;35.66
35716;BME280;21840;44.920;8.616;2023-02-28T14:40:47;100931.41;;;12.73;36.49
35716;BME280;21840;44.920;8.616;2023-02-28T14:43:21;100925.19;;;12.93;36.20
35716;BME280;21840;44.920;8.616;2023-02-28T14:45:49;100928.38;;;12.97;35.87
35716;BME280;21840;44.920;8.616;2023-02-28T14:48:16;100928.78;;;12.92;36.13
35716;BME280;21840;44.920;8.616;2023-02-28T14:50:49;100923.41;;;13.04;35.97
35716;BME280;21840;44.920;8.616;2023-02-28T14:53:18;100916.63;;;13.21;35.41
35716;BME280;21840;44.920;8.616;2023-02-28T14:55:46;100920.19;;;12.81;35.92
35716;BME280;21840;44.920;8.616;2023-02-28T14:58:25;100920.75;;;12.94;35.75
35716;BME280;21840;44.920;8.616;2023-02-28T15:00:52;100926.56;;;13.07;36.00
35716;BME280;21840;44.920;8.616;2023-02-28T15:03:20;100922.88;;;13.29;35.87
35716;BME280;21840;44.920;8.616;2023-02-28T15:06:03;100910.81;;;13.46;35.07
35716;BME280;21840;44.920;8.616;2023-02-28T15:08:31;100914.84;;;13.41;34.74
35716;BME280;21840;44.920;8.616;2023-02-28T15:13:54;100914.25;;;13.66;33.96
35716;BME280;21840;44.920;8.616;2023-02-28T15:16:38;100917.59;;;13.58;33.84
35716;BME280;21840;44.920;8.616;2023-02-28T15:19:11;100906.78;;;13.42;33.68
35716;BME280;21840;44.920;8.616;2023-02-28T15:21:44;100910.41;;;13.31;34.19
35716;BME280;21840;44.920;8.616;2023-02-28T15:27:07;100911.75;;;13.26;34.67
35716;BME280;21840;44.920;8.616;2023-02-28T15:29:44;100913.97;;;13.11;34.84
35716;BME280;21840;44.920;8.616;2023-02-28T15:32:29;100905.88;;;13.03;35.09
35716;BME280;21840;44.920;8.616;2023-02-28T15:34:56;100908.53;;;12.93;35.33